createdAt,value
2019-05-19T06:48:12.488Z,21.40
2019-05-19T06:50:41.792Z,21.30
2019-05-19T06:53:14.412Z,20.80
2019-05-19T06:55:42.295Z,20.80
2019-05-19T06:58:11.714Z,20.80
2019-05-19T07:00:41.438Z,20.70
2019-05-19T07:03:10.835Z,20.70
2019-05-19T07:05:40.179Z,20.70
2019-05-19T07:08:10.623Z,20.70
2019-05-19T07:10:40.022Z,20.90
2019-05-19T07:13:09.390Z,21.00
2019-05-19T07:15:38.835Z,21.10
2019-05-19T07:18:08.315Z,21.00
2019-05-19T07:20:37.773Z,21.20
2019-05-19T07:23:07.214Z,21.10
2019-05-19T07:25:36.717Z,20.70
2019-05-19T07:28:06.328Z,20.10
2019-05-19T07:30:35.841Z,19.90
2019-05-19T07:33:05.343Z,19.80
2019-05-19T07:35:34.807Z,19.80
2019-05-19T07:38:07.267Z,19.90
2019-05-19T07:40:35.388Z,19.70
2019-05-19T07:43:04.794Z,19.70
2019-05-19T07:45:34.189Z,19.50
2019-05-19T07:48:03.693Z,19.70
2019-05-19T07:50:33.137Z,19.60
2019-05-19T07:53:02.696Z,19.60
2019-05-19T07:55:32.203Z,19.60
2019-05-19T07:58:01.711Z,19.50
2019-05-19T08:00:31.316Z,19.40
2019-05-19T08:03:00.919Z,19.40
2019-05-19T08:05:30.426Z,19.40
2019-05-19T08:07:59.830Z,19.50
2019-05-19T08:10:30.352Z,19.50
2019-05-19T08:12:59.859Z,19.60
2019-05-19T08:15:29.364Z,19.50
2019-05-19T08:17:58.866Z,19.60
2019-05-19T08:22:58.802Z,19.50
2019-05-19T08:25:31.480Z,19.50
2019-05-19T08:28:08.581Z,19.40
2019-05-19T08:30:32.021Z,19.30
2019-05-19T08:33:02.810Z,19.10
2019-05-19T08:35:32.334Z,19.40
2019-05-19T08:38:01.981Z,19.40
2019-05-19T08:40:31.423Z,19.60
2019-05-19T08:43:00.932Z,19.70
2019-05-19T08:45:30.477Z,19.80
2019-05-19T08:47:59.875Z,20.00
2019-05-19T08:50:29.283Z,20.10
2019-05-19T08:52:58.735Z,20.30
2019-05-19T08:55:28.152Z,20.40
2019-05-19T08:57:57.566Z,20.70
2019-05-19T09:00:26.987Z,20.80
2019-05-19T09:02:56.520Z,20.90
2019-05-19T09:05:26.056Z,21.10
2019-05-19T09:07:55.602Z,21.20
2019-05-19T09:10:25.196Z,21.30
2019-05-19T09:14:03.630Z,21.30
2019-05-19T09:16:33.234Z,21.20
2019-05-19T09:19:03.666Z,21.00
2019-05-19T09:21:33.173Z,21.40
2019-05-19T09:24:02.776Z,20.90
2019-05-19T09:29:01.632Z,21.00
2019-05-19T09:31:31.355Z,21.20
2019-05-19T09:34:00.874Z,21.30
2019-05-19T09:36:30.294Z,21.40
2019-05-19T09:38:59.700Z,21.60
2019-05-19T09:41:29.196Z,21.70
2019-05-19T09:43:58.563Z,21.90
2019-05-19T09:46:28.000Z,21.90
2019-05-19T09:49:15.191Z,22.10
2019-05-19T09:51:44.732Z,22.00
2019-05-19T09:54:14.227Z,22.00
2019-05-19T09:56:43.732Z,21.90
2019-05-19T09:59:13.130Z,22.00
2019-05-19T10:01:42.741Z,21.90
2019-05-19T10:04:12.147Z,21.90
2019-05-19T10:06:44.433Z,22.10
2019-05-19T10:09:32.758Z,22.20
2019-05-19T10:12:07.277Z,22.10
2019-05-19T10:14:36.787Z,22.10
2019-05-19T10:17:06.221Z,22.10
2019-05-19T10:19:35.619Z,22.20
2019-05-19T10:22:04.993Z,22.20
2019-05-19T10:24:34.593Z,22.00
2019-05-19T10:27:04.012Z,22.00
2019-05-19T10:29:33.601Z,22.00
2019-05-19T10:32:03.005Z,22.20
2019-05-19T10:34:32.402Z,22.20
2019-05-19T10:37:02.011Z,22.20
2019-05-19T10:39:31.416Z,22.30
2019-05-19T10:42:00.735Z,22.40
2019-05-19T10:44:30.322Z,22.50
2019-05-19T10:46:59.924Z,22.50
2019-05-19T10:49:29.441Z,22.80
2019-05-19T10:51:59.136Z,22.80
2019-05-19T10:54:29.788Z,23.00
2019-05-19T10:56:59.167Z,23.00
2019-05-19T10:59:28.571Z,23.30
2019-05-19T11:01:58.183Z,23.30
2019-05-19T11:04:27.580Z,23.80
2019-05-19T11:06:57.090Z,23.90
2019-05-19T11:09:26.491Z,24.10
2019-05-19T11:11:55.994Z,24.50
2019-05-19T11:14:25.392Z,24.60
2019-05-19T11:16:54.965Z,24.80
2019-05-19T11:19:26.037Z,25.50
2019-05-19T11:21:55.541Z,25.70
2019-05-19T11:24:25.149Z,26.30
2019-05-19T11:26:54.756Z,27.30
2019-05-19T11:29:24.158Z,27.30
2019-05-19T11:31:53.573Z,27.80
2019-05-19T11:34:23.063Z,28.30
2019-05-19T11:36:52.565Z,28.90
2019-05-19T11:42:06.427Z,29.80
2019-05-19T11:44:36.870Z,30.40
2019-05-19T11:47:06.164Z,30.90
2019-05-19T11:49:35.754Z,31.30
2019-05-19T11:52:08.431Z,31.40
2019-05-19T11:54:37.838Z,31.40
2019-05-19T11:57:07.243Z,30.80
2019-05-19T11:59:36.644Z,31.10
2019-05-19T12:02:06.096Z,30.90
2019-05-19T12:04:35.698Z,31.80
2019-05-19T12:07:05.462Z,32.60
2019-05-19T12:09:34.869Z,33.30
2019-05-19T12:12:04.369Z,33.80
2019-05-19T12:14:33.770Z,34.10
2019-05-19T12:17:03.203Z,34.70
2019-05-19T12:19:32.771Z,34.70
2019-05-19T12:22:02.255Z,34.90
2019-05-19T12:24:31.784Z,35.80
2019-05-19T12:27:01.187Z,35.90
2019-05-19T12:29:30.692Z,36.10
2019-05-19T12:32:00.248Z,36.50
2019-05-19T12:34:29.800Z,37.00
2019-05-19T12:36:59.300Z,37.20
2019-05-19T12:39:30.627Z,37.60
2019-05-19T12:41:59.853Z,37.90
2019-05-19T12:44:29.304Z,38.30
2019-05-19T12:46:59.996Z,38.30
2019-05-19T12:49:29.384Z,38.90
2019-05-19T12:54:10.036Z,38.50
2019-05-19T12:56:40.369Z,39.30
2019-05-19T12:59:09.995Z,40.10
2019-05-19T13:01:39.445Z,40.50
2019-05-19T13:04:10.531Z,40.60
2019-05-19T13:06:40.448Z,40.80
2019-05-19T13:09:11.371Z,41.00
2019-05-19T13:11:40.890Z,41.20
2019-05-19T13:14:10.295Z,41.60
2019-05-19T13:16:41.026Z,41.80
2019-05-19T13:19:10.531Z,42.10
2019-05-19T13:21:40.035Z,42.50
2019-05-19T13:24:10.683Z,42.20
2019-05-19T13:26:54.178Z,42.40
2019-05-19T13:29:11.314Z,42.00
2019-05-19T13:31:40.968Z,42.50
2019-05-19T13:34:10.448Z,42.90
2019-05-19T13:36:41.693Z,42.90
2019-05-19T13:41:52.044Z,43.30
2019-05-19T13:44:21.592Z,43.50
2019-05-19T13:46:51.051Z,43.90
2019-05-19T13:49:20.665Z,44.20
2019-05-19T13:51:50.181Z,44.60
2019-05-19T13:54:19.584Z,44.40
2019-05-19T13:56:50.815Z,42.70
2019-05-19T13:59:20.318Z,39.30
2019-05-19T14:01:49.918Z,39.60
2019-05-19T14:04:19.429Z,40.40
2019-05-19T14:06:48.721Z,40.80
2019-05-19T14:09:19.669Z,41.40
2019-05-19T14:11:48.871Z,42.10
2019-05-19T14:14:18.273Z,41.80
2019-05-19T14:16:47.764Z,41.50
2019-05-19T14:19:17.374Z,41.70
2019-05-19T14:21:47.207Z,41.50
2019-05-19T14:24:17.202Z,41.40
2019-05-19T14:26:46.598Z,42.10
2019-05-19T14:29:15.898Z,42.70
2019-05-19T14:31:45.302Z,42.80
2019-05-19T14:34:14.812Z,43.00
2019-05-19T14:36:44.104Z,43.20
2019-05-19T14:39:14.203Z,42.70
2019-05-19T14:41:45.470Z,42.90
2019-05-19T14:44:14.873Z,43.00
2019-05-19T14:46:44.278Z,42.70
2019-05-19T14:49:13.886Z,42.70
2019-05-19T14:51:44.329Z,42.70
2019-05-19T14:54:13.817Z,42.70
2019-05-19T14:56:43.218Z,42.90
2019-05-19T14:59:12.458Z,43.10
2019-05-19T15:01:42.003Z,43.10
2019-05-19T15:04:11.430Z,43.10
2019-05-19T15:06:40.685Z,43.10
2019-05-19T15:09:10.116Z,43.10
2019-05-19T15:11:40.099Z,42.80
2019-05-19T15:14:09.966Z,41.50
2019-05-19T15:16:39.448Z,41.60
2019-05-19T15:19:08.854Z,41.20
2019-05-19T15:21:38.361Z,41.00
2019-05-19T15:24:08.444Z,40.40
2019-05-19T15:26:37.978Z,39.70
2019-05-19T15:29:07.277Z,39.30
2019-05-19T15:34:08.243Z,39.10
2019-05-19T15:36:37.736Z,39.00
2019-05-19T15:41:36.098Z,36.80
2019-05-19T15:44:07.118Z,37.20
2019-05-19T15:46:36.578Z,37.50
2019-05-19T15:49:06.700Z,37.30
2019-05-19T15:51:37.737Z,37.40
2019-05-19T15:54:07.240Z,37.20
2019-05-19T15:56:36.842Z,37.60
2019-05-19T15:59:07.269Z,37.40
2019-05-19T16:01:36.772Z,37.30
2019-05-19T16:04:06.199Z,37.40
2019-05-19T16:06:38.954Z,37.50
2019-05-19T16:09:07.286Z,37.20
2019-05-19T16:11:36.942Z,36.90
2019-05-19T16:14:06.545Z,36.30
2019-05-19T16:16:36.054Z,36.30
2019-05-19T16:19:06.584Z,36.20
2019-05-19T16:21:36.187Z,35.70
2019-05-19T16:24:05.697Z,35.70
2019-05-19T16:26:35.090Z,35.90
2019-05-19T16:29:04.593Z,35.90
2019-05-19T16:34:14.868Z,35.50
2019-05-19T16:36:44.371Z,35.30
2019-05-19T16:39:13.880Z,35.10
2019-05-19T16:41:43.487Z,35.00
2019-05-19T16:44:14.009Z,34.50
2019-05-19T16:46:43.516Z,34.10
2019-05-19T16:49:12.916Z,34.10
2019-05-19T16:51:42.371Z,33.90
2019-05-19T16:54:13.562Z,33.20
2019-05-19T16:56:45.320Z,32.80
2019-05-19T16:59:14.767Z,32.40
2019-05-19T17:01:44.337Z,32.00
2019-05-19T17:04:13.810Z,31.60
2019-05-19T17:06:43.343Z,31.10
2019-05-19T17:09:12.755Z,30.70
2019-05-19T17:11:42.244Z,30.60
2019-05-19T17:14:11.690Z,30.30
2019-05-19T17:16:41.129Z,30.00
2019-05-19T17:19:10.585Z,29.90
2019-05-19T17:22:15.894Z,29.60
2019-05-19T17:24:45.264Z,29.50
2019-05-19T17:27:15.823Z,28.80
2019-05-19T17:29:45.400Z,28.80
2019-05-19T17:32:14.832Z,28.70
2019-05-19T17:34:44.339Z,28.50
2019-05-19T17:37:15.279Z,28.20
2019-05-19T17:39:44.783Z,28.20
2019-05-19T17:42:14.030Z,28.00
2019-05-19T17:44:43.370Z,27.70
2019-05-19T17:47:12.786Z,27.60
2019-05-19T17:49:42.693Z,27.40
2019-05-19T17:52:12.812Z,27.40
2019-05-19T17:54:42.257Z,27.10
2019-05-19T17:57:11.820Z,27.10
2019-05-19T17:59:43.086Z,26.90
2019-05-19T18:02:13.632Z,26.70
2019-05-19T18:04:43.180Z,26.40
2019-05-19T18:07:13.328Z,26.20
2019-05-19T18:09:43.050Z,26.00
2019-05-19T18:12:13.573Z,26.00
2019-05-19T18:14:43.086Z,25.90
2019-05-19T18:17:12.574Z,25.80
2019-05-19T18:19:42.477Z,25.50
2019-05-19T18:22:11.789Z,25.40
2019-05-19T18:24:41.281Z,25.20
2019-05-19T18:27:10.494Z,25.00
2019-05-19T18:29:39.998Z,24.80
2019-05-19T18:34:19.230Z,24.60
2019-05-19T18:36:48.638Z,24.60
2019-05-19T18:39:18.034Z,24.50
2019-05-19T18:41:47.433Z,24.40
2019-05-19T18:44:16.837Z,24.30
2019-05-19T18:46:46.353Z,24.10
2019-05-19T18:49:18.567Z,24.10
2019-05-19T18:51:48.117Z,24.10
2019-05-19T18:54:17.619Z,23.90
2019-05-19T18:56:50.593Z,23.80
2019-05-19T18:59:18.577Z,23.70
2019-05-19T19:01:49.324Z,23.60
2019-05-19T19:04:18.828Z,23.50
2019-05-19T19:06:48.210Z,23.50
2019-05-19T19:09:17.715Z,23.30
2019-05-19T19:11:47.117Z,23.30
2019-05-19T19:14:16.550Z,23.20
2019-05-19T19:16:46.044Z,23.10
2019-05-19T19:19:15.529Z,23.00
2019-05-19T19:21:44.901Z,23.00
2019-05-19T19:24:14.438Z,23.00
2019-05-19T19:26:43.928Z,22.90
2019-05-19T19:29:13.545Z,22.90
2019-05-19T19:31:48.668Z,22.80
2019-05-19T19:34:14.102Z,22.70
2019-05-19T19:36:43.746Z,22.60
2019-05-19T19:39:13.191Z,22.50
2019-05-19T19:41:42.641Z,22.50
2019-05-19T19:44:13.687Z,22.50
2019-05-19T19:46:43.169Z,22.70
2019-05-19T19:49:12.600Z,22.70
2019-05-19T19:54:02.458Z,22.40
2019-05-19T19:56:32.010Z,22.30
2019-05-19T19:59:01.532Z,22.30
2019-05-19T20:01:31.450Z,22.20
2019-05-19T20:04:00.834Z,22.10
2019-05-19T20:06:30.275Z,22.00
2019-05-19T20:08:59.648Z,22.00
2019-05-19T20:11:29.079Z,22.00
2019-05-19T20:14:19.984Z,21.90
2019-05-19T20:16:49.398Z,21.90
2019-05-19T20:19:18.681Z,21.70
2019-05-19T20:22:22.056Z,21.70
2019-05-19T20:26:20.739Z,21.60
2019-05-19T20:28:50.134Z,21.50
2019-05-19T20:31:19.494Z,21.40
2019-05-19T20:34:21.159Z,21.50
2019-05-19T20:36:50.445Z,21.20
2019-05-19T20:39:19.782Z,21.10
2019-05-19T20:42:23.016Z,21.10
2019-05-19T20:44:52.348Z,21.10
2019-05-19T20:47:21.762Z,21.10
2019-05-19T20:49:51.131Z,21.00
2019-05-19T20:52:20.519Z,21.00
2019-05-19T20:54:49.851Z,21.00
2019-05-19T20:57:19.195Z,21.00
2019-05-19T20:59:48.543Z,20.80
2019-05-19T21:02:17.917Z,20.80
2019-05-19T21:04:47.367Z,20.80
2019-05-19T21:07:16.795Z,20.70
2019-05-19T21:09:46.408Z,20.70
2019-05-19T21:12:15.838Z,20.70
2019-05-19T21:14:45.214Z,20.60
2019-05-19T21:17:15.841Z,20.50
2019-05-19T21:19:46.740Z,20.40
2019-05-19T21:22:16.070Z,20.40
2019-05-19T21:24:45.351Z,20.20
2019-05-19T21:29:43.729Z,19.80
2019-05-19T21:32:13.093Z,19.70
2019-05-19T21:34:42.557Z,19.60
2019-05-19T21:37:11.871Z,19.60
2019-05-19T21:42:23.031Z,19.60
2019-05-19T21:44:52.377Z,19.70
2019-05-19T21:47:21.728Z,19.60
2019-05-19T21:49:51.121Z,19.50
2019-05-19T21:52:20.488Z,19.50
2019-05-19T21:54:49.998Z,19.50
2019-05-19T21:57:19.410Z,19.50
2019-05-19T21:59:48.792Z,19.50
2019-05-19T22:02:18.198Z,19.60
2019-05-19T22:04:48.554Z,19.40
2019-05-19T22:07:34.922Z,19.30
2019-05-19T22:10:05.619Z,19.40
2019-05-19T22:12:34.989Z,19.20
2019-05-19T22:15:06.064Z,19.10
2019-05-19T22:17:36.523Z,19.10
2019-05-19T22:25:21.903Z,18.80
2019-05-19T22:27:51.371Z,18.80
2019-05-19T22:30:20.926Z,19.00
2019-05-19T22:34:24.887Z,19.00
2019-05-19T22:36:54.412Z,18.80
2019-05-19T22:39:23.832Z,18.70
2019-05-19T22:41:53.389Z,18.70
2019-05-19T22:49:20.943Z,18.60
2019-05-19T22:51:50.380Z,18.70
2019-05-19T22:54:26.260Z,18.70
2019-05-19T22:56:58.166Z,18.80
2019-05-19T22:59:27.563Z,18.80
2019-05-19T23:01:56.979Z,18.70
2019-05-19T23:04:26.340Z,18.80
2019-05-19T23:06:55.785Z,18.60
2019-05-19T23:09:25.254Z,18.60
2019-05-19T23:14:23.770Z,18.60
2019-05-19T23:16:53.187Z,18.70
2019-05-19T23:19:22.614Z,18.60
2019-05-19T23:21:52.085Z,18.40
2019-05-19T23:24:21.426Z,18.20
2019-05-19T23:29:19.883Z,18.00
2019-05-19T23:31:49.498Z,18.00
2019-05-19T23:34:19.032Z,18.00
2019-05-19T23:36:48.482Z,18.10
2019-05-19T23:46:45.053Z,17.90
2019-05-19T23:54:12.875Z,17.80
2019-05-19T23:56:47.527Z,17.90
2019-05-19T23:59:19.504Z,17.80
